sensor_id;sensor_type;location;lat;lon;timestamp;pressure;altitude;pressure_sealevel;temperature;humidity
30598;BME280;17365;48.878;8.334;2023-05-20T00:00:03;100223.16;;;13.50;78.17
30598;BME280;17365;48.878;8.334;2023-05-20T00:02:28;100220.66;;;13.34;78.94
30598;BME280;17365;48.878;8.334;2023-05-20T00:04:53;100216.34;;;13.33;79.29
30598;BME280;17365;48.878;8.334;2023-05-20T00:07:19;100214.53;;;13.43;78.83
30598;BME280;17365;48.878;8.334;2023-05-20T00:09:45;100221.59;;;13.29;80.11
30598;BME280;17365;48.878;8.334;2023-05-20T00:12:10;100217.06;;;13.48;78.72
30598;BME280;17365;48.878;8.334;2023-05-20T00:14:35;100222.22;;;13.57;78.12
30598;BME280;17365;48.878;8.334;2023-05-20T00:17:00;100204.00;;;13.55;78.43
30598;BME280;17365;48.878;8.334;2023-05-20T00:19:25;100214.41;;;13.57;78.38
30598;BME280;17365;48.878;8.334;2023-05-20T00:21:51;100211.91;;;13.45;78.91
30598;BME280;17365;48.878;8.334;2023-05-20T00:24:16;100211.88;;;13.49;78.17
30598;BME280;17365;48.878;8.334;2023-05-20T00:26:41;100207.72;;;13.27;79.11
30598;BME280;17365;48.878;8.334;2023-05-20T00:29:06;100211.06;;;13.41;78.81
30598;BME280;17365;48.878;8.334;2023-05-20T00:31:31;100203.31;;;13.36;78.96
30598;BME280;17365;48.878;8.334;2023-05-20T00:33:56;100198.16;;;13.27;78.98
30598;BME280;17365;48.878;8.334;2023-05-20T00:36:22;100198.31;;;13.04;80.51
30598;BME280;17365;48.878;8.334;2023-05-20T00:38:47;100197.44;;;13.01;81.26
30598;BME280;17365;48.878;8.334;2023-05-20T00:41:12;100201.66;;;13.23;79.99
30598;BME280;17365;48.878;8.334;2023-05-20T00:43:37;100200.78;;;13.23;79.15
30598;BME280;17365;48.878;8.334;2023-05-20T00:46:03;100209.31;;;13.42;78.69
30598;BME280;17365;48.878;8.334;2023-05-20T00:48:29;100205.03;;;13.33;78.96
30598;BME280;17365;48.878;8.334;2023-05-20T00:50:56;100206.13;;;13.04;79.71
30598;BME280;17365;48.878;8.334;2023-05-20T00:53:22;100210.28;;;13.30;78.93
30598;BME280;17365;48.878;8.334;2023-05-20T00:55:47;100207.66;;;13.31;78.66
30598;BME280;17365;48.878;8.334;2023-05-20T00:58:12;100205.00;;;13.40;78.02
30598;BME280;17365;48.878;8.334;2023-05-20T01:00:38;100208.59;;;13.24;78.32
30598;BME280;17365;48.878;8.334;2023-05-20T01:03:03;100215.44;;;13.37;78.53
30598;BME280;17365;48.878;8.334;2023-05-20T01:05:28;100214.50;;;13.45;77.98
30598;BME280;17365;48.878;8.334;2023-05-20T01:07:53;100205.91;;;13.38;77.95
30598;BME280;17365;48.878;8.334;2023-05-20T01:10:19;100205.84;;;13.41;78.11
30598;BME280;17365;48.878;8.334;2023-05-20T01:12:45;100208.63;;;13.20;79.32
30598;BME280;17365;48.878;8.334;2023-05-20T01:15:13;100218.00;;;13.42;78.04
30598;BME280;17365;48.878;8.334;2023-05-20T01:17:40;100213.63;;;13.46;77.85
30598;BME280;17365;48.878;8.334;2023-05-20T01:20:08;100216.22;;;13.47;77.57
30598;BME280;17365;48.878;8.334;2023-05-20T01:22:38;100212.03;;;13.29;78.21
30598;BME280;17365;48.878;8.334;2023-05-20T01:25:03;100215.56;;;13.21;78.38
30598;BME280;17365;48.878;8.334;2023-05-20T01:27:29;100205.16;;;13.18;79.03
30598;BME280;17365;48.878;8.334;2023-05-20T01:29:55;100199.06;;;13.22;78.94
30598;BME280;17365;48.878;8.334;2023-05-20T01:32:21;100204.31;;;13.09;79.57
30598;BME280;17365;48.878;8.334;2023-05-20T01:34:47;100204.25;;;13.22;79.18
30598;BME280;17365;48.878;8.334;2023-05-20T01:37:13;100200.78;;;13.23;78.84
30598;BME280;17365;48.878;8.334;2023-05-20T01:39:39;100198.19;;;13.26;78.84
30598;BME280;17365;48.878;8.334;2023-05-20T01:42:08;100198.09;;;13.33;78.35
30598;BME280;17365;48.878;8.334;2023-05-20T01:44:34;100185.09;;;13.32;78.60
30598;BME280;17365;48.878;8.334;2023-05-20T01:46:59;100187.75;;;13.23;78.36
30598;BME280;17365;48.878;8.334;2023-05-20T01:49:28;100190.28;;;13.33;78.39
30598;BME280;17365;48.878;8.334;2023-05-20T01:51:53;100181.53;;;13.42;77.81
30598;BME280;17365;48.878;8.334;2023-05-20T01:54:18;100186.66;;;13.53;77.58
30598;BME280;17365;48.878;8.334;2023-05-20T01:56:44;100186.59;;;13.57;77.04
30598;BME280;17365;48.878;8.334;2023-05-20T01:59:10;100180.78;;;13.25;77.81
30598;BME280;17365;48.878;8.334;2023-05-20T02:01:35;100180.59;;;13.51;76.99
30598;BME280;17365;48.878;8.334;2023-05-20T02:04:00;100175.28;;;13.58;76.46
30598;BME280;17365;48.878;8.334;2023-05-20T02:06:25;100170.22;;;13.45;76.88
30598;BME280;17365;48.878;8.334;2023-05-20T02:08:51;100172.88;;;13.38;77.43
30598;BME280;17365;48.878;8.334;2023-05-20T02:11:16;100167.63;;;13.42;77.16
30598;BME280;17365;48.878;8.334;2023-05-20T02:13:41;100168.56;;;13.33;77.80
30598;BME280;17365;48.878;8.334;2023-05-20T02:16:06;100165.94;;;13.37;78.23
30598;BME280;17365;48.878;8.334;2023-05-20T02:18:31;100157.25;;;13.38;78.16
30598;BME280;17365;48.878;8.334;2023-05-20T02:21:02;100152.06;;;13.32;78.45
30598;BME280;17365;48.878;8.334;2023-05-20T02:23:30;100138.28;;;13.21;78.67
30598;BME280;17365;48.878;8.334;2023-05-20T02:25:55;100142.59;;;13.27;79.00
30598;BME280;17365;48.878;8.334;2023-05-20T02:28:21;100136.50;;;13.25;79.13
30598;BME280;17365;48.878;8.334;2023-05-20T02:30:46;100140.88;;;13.18;79.58
30598;BME280;17365;48.878;8.334;2023-05-20T02:33:11;100140.88;;;13.26;79.26
30598;BME280;17365;48.878;8.334;2023-05-20T02:35:37;100147.00;;;13.14;79.88
30598;BME280;17365;48.878;8.334;2023-05-20T02:38:02;100144.41;;;13.09;79.64
30598;BME280;17365;48.878;8.334;2023-05-20T02:40:28;100136.53;;;13.23;79.00
30598;BME280;17365;48.878;8.334;2023-05-20T02:42:53;100151.22;;;13.30;78.79
30598;BME280;17365;48.878;8.334;2023-05-20T02:45:18;100145.97;;;13.36;78.39
30598;BME280;17365;48.878;8.334;2023-05-20T02:47:43;100151.19;;;13.36;78.77
30598;BME280;17365;48.878;8.334;2023-05-20T02:50:08;100149.44;;;13.35;78.94
30598;BME280;17365;48.878;8.334;2023-05-20T02:52:34;100154.72;;;13.29;79.32
30598;BME280;17365;48.878;8.334;2023-05-20T02:55:00;100154.75;;;13.23;80.10
30598;BME280;17365;48.878;8.334;2023-05-20T02:57:25;100147.84;;;13.19;80.36
30598;BME280;17365;48.878;8.334;2023-05-20T02:59:52;100148.69;;;13.21;80.32
30598;BME280;17365;48.878;8.334;2023-05-20T03:02:17;100147.00;;;13.12;81.04
30598;BME280;17365;48.878;8.334;2023-05-20T03:04:42;100155.66;;;13.18;80.86
30598;BME280;17365;48.878;8.334;2023-05-20T03:07:10;100156.63;;;13.04;81.44
30598;BME280;17365;48.878;8.334;2023-05-20T03:09:36;100161.75;;;13.13;81.11
30598;BME280;17365;48.878;8.334;2023-05-20T03:12:01;100151.34;;;13.15;80.96
30598;BME280;17365;48.878;8.334;2023-05-20T03:14:26;100153.06;;;13.16;81.13
30598;BME280;17365;48.878;8.334;2023-05-20T03:16:52;100155.66;;;13.16;81.03
30598;BME280;17365;48.878;8.334;2023-05-20T03:19:19;100156.63;;;13.06;81.26
30598;BME280;17365;48.878;8.334;2023-05-20T03:21:44;100156.53;;;13.15;81.02
30598;BME280;17365;48.878;8.334;2023-05-20T03:24:10;100162.63;;;13.11;81.18
30598;BME280;17365;48.878;8.334;2023-05-20T03:26:35;100157.41;;;13.17;80.71
30598;BME280;17365;48.878;8.334;2023-05-20T03:29:01;100168.75;;;13.08;81.23
30598;BME280;17365;48.878;8.334;2023-05-20T03:31:27;100161.91;;;12.95;81.79
30598;BME280;17365;48.878;8.334;2023-05-20T03:33:52;100167.91;;;13.02;81.81
30598;BME280;17365;48.878;8.334;2023-05-20T03:36:17;100169.66;;;13.01;81.58
30598;BME280;17365;48.878;8.334;2023-05-20T03:38:42;100173.19;;;12.90;82.09
30598;BME280;17365;48.878;8.334;2023-05-20T03:41:08;100167.13;;;12.89;82.16
30598;BME280;17365;48.878;8.334;2023-05-20T03:43:33;100167.13;;;12.91;81.95
30598;BME280;17365;48.878;8.334;2023-05-20T03:45:58;100172.31;;;12.91;81.92
30598;BME280;17365;48.878;8.334;2023-05-20T03:48:23;100165.34;;;12.99;80.94
30598;BME280;17365;48.878;8.334;2023-05-20T03:50:49;100175.72;;;13.05;81.17
30598;BME280;17365;48.878;8.334;2023-05-20T03:53:14;100174.91;;;12.97;81.11
30598;BME280;17365;48.878;8.334;2023-05-20T03:55:41;100176.50;;;13.13;80.80
30598;BME280;17365;48.878;8.334;2023-05-20T03:58:06;100168.63;;;13.27;79.89
30598;BME280;17365;48.878;8.334;2023-05-20T04:00:32;100177.38;;;13.12;80.67
30598;BME280;17365;48.878;8.334;2023-05-20T04:02:57;100172.97;;;13.28;80.04
30598;BME280;17365;48.878;8.334;2023-05-20T04:05:23;100175.50;;;13.35;79.76
30598;BME280;17365;48.878;8.334;2023-05-20T04:07:49;100174.72;;;13.27;79.79
30598;BME280;17365;48.878;8.334;2023-05-20T04:10:14;100171.31;;;13.15;80.70
30598;BME280;17365;48.878;8.334;2023-05-20T04:12:39;100172.88;;;13.35;79.70
30598;BME280;17365;48.878;8.334;2023-05-20T04:15:05;100178.97;;;13.36;79.39
30598;BME280;17365;48.878;8.334;2023-05-20T04:17:30;100173.84;;;13.28;79.35
30598;BME280;17365;48.878;8.334;2023-05-20T04:19:56;100174.78;;;13.12;79.62
30598;BME280;17365;48.878;8.334;2023-05-20T04:22:23;100179.97;;;13.18;79.30
30598;BME280;17365;48.878;8.334;2023-05-20T04:24:48;100178.25;;;13.16;79.16
30598;BME280;17365;48.878;8.334;2023-05-20T04:27:13;100177.34;;;13.18;79.32
30598;BME280;17365;48.878;8.334;2023-05-20T04:29:40;100172.25;;;13.06;79.14
30598;BME280;17365;48.878;8.334;2023-05-20T04:32:06;100175.63;;;13.20;78.73
30598;BME280;17365;48.878;8.334;2023-05-20T04:34:31;100173.09;;;13.06;79.19
30598;BME280;17365;48.878;8.334;2023-05-20T04:36:59;100174.75;;;13.20;78.27
30598;BME280;17365;48.878;8.334;2023-05-20T04:39:24;100183.41;;;13.28;78.02
30598;BME280;17365;48.878;8.334;2023-05-20T04:41:50;100172.16;;;13.21;78.11
30598;BME280;17365;48.878;8.334;2023-05-20T04:44:18;100180.94;;;13.05;78.19
30598;BME280;17365;48.878;8.334;2023-05-20T04:46:44;100173.91;;;13.19;78.09
30598;BME280;17365;48.878;8.334;2023-05-20T04:49:10;100171.28;;;13.19;78.08
30598;BME280;17365;48.878;8.334;2023-05-20T04:51:35;100176.31;;;13.42;77.34
30598;BME280;17365;48.878;8.334;2023-05-20T04:54:00;100168.47;;;13.44;76.87
30598;BME280;17365;48.878;8.334;2023-05-20T04:56:26;100166.63;;;13.55;76.72
30598;BME280;17365;48.878;8.334;2023-05-20T04:58:51;100166.00;;;13.30;77.96
30598;BME280;17365;48.878;8.334;2023-05-20T05:01:16;100165.78;;;13.53;77.04
30598;BME280;17365;48.878;8.334;2023-05-20T05:03:42;100163.28;;;13.42;76.99
30598;BME280;17365;48.878;8.334;2023-05-20T05:06:07;100162.34;;;13.48;77.30
30598;BME280;17365;48.878;8.334;2023-05-20T05:08:32;100162.50;;;13.32;77.54
30598;BME280;17365;48.878;8.334;2023-05-20T05:10:57;100165.03;;;13.42;77.92
30598;BME280;17365;48.878;8.334;2023-05-20T05:13:22;100157.19;;;13.43;77.30
30598;BME280;17365;48.878;8.334;2023-05-20T05:15:48;100158.75;;;13.62;77.20
30598;BME280;17365;48.878;8.334;2023-05-20T05:18:21;100148.25;;;13.72;76.09
30598;BME280;17365;48.878;8.334;2023-05-20T05:20:46;100156.09;;;13.67;75.64
30598;BME280;17365;48.878;8.334;2023-05-20T05:23:11;100153.47;;;13.72;75.80
30598;BME280;17365;48.878;8.334;2023-05-20T05:25:37;100149.88;;;13.79;75.08
30598;BME280;17365;48.878;8.334;2023-05-20T05:28:02;100141.44;;;13.55;75.72
30598;BME280;17365;48.878;8.334;2023-05-20T05:30:27;100144.72;;;13.74;74.79
30598;BME280;17365;48.878;8.334;2023-05-20T05:32:52;100140.56;;;13.55;75.22
30598;BME280;17365;48.878;8.334;2023-05-20T05:35:17;100134.69;;;14.14;73.52
30598;BME280;17365;48.878;8.334;2023-05-20T05:37:43;100134.00;;;14.68;70.55
30598;BME280;17365;48.878;8.334;2023-05-20T05:40:08;100129.28;;;14.30;72.55
30598;BME280;17365;48.878;8.334;2023-05-20T05:42:33;100132.75;;;14.30;72.14
30598;BME280;17365;48.878;8.334;2023-05-20T05:44:58;100126.47;;;15.05;68.98
30598;BME280;17365;48.878;8.334;2023-05-20T05:47:24;100132.34;;;15.19;67.50
30598;BME280;17365;48.878;8.334;2023-05-20T05:49:53;100133.97;;;14.71;68.94
30598;BME280;17365;48.878;8.334;2023-05-20T05:52:18;100131.72;;;14.45;69.93
30598;BME280;17365;48.878;8.334;2023-05-20T05:54:43;100129.19;;;14.37;70.20
30598;BME280;17365;48.878;8.334;2023-05-20T05:57:09;100119.38;;;14.56;70.46
30598;BME280;17365;48.878;8.334;2023-05-20T05:59:35;100129.34;;;14.25;71.15
30598;BME280;17365;48.878;8.334;2023-05-20T06:02:01;100124.69;;;14.48;70.79
30598;BME280;17365;48.878;8.334;2023-05-20T06:04:26;100140.66;;;14.24;71.22
30598;BME280;17365;48.878;8.334;2023-05-20T06:06:51;100125.69;;;14.40;71.74
30598;BME280;17365;48.878;8.334;2023-05-20T06:09:16;100131.28;;;14.09;72.35
30598;BME280;17365;48.878;8.334;2023-05-20T06:11:41;100126.69;;;14.26;72.55
30598;BME280;17365;48.878;8.334;2023-05-20T06:14:08;100131.09;;;14.23;72.46
30598;BME280;17365;48.878;8.334;2023-05-20T06:16:33;100132.59;;;14.42;72.28
30598;BME280;17365;48.878;8.334;2023-05-20T06:18:58;100119.31;;;13.91;73.95
30598;BME280;17365;48.878;8.334;2023-05-20T06:21:24;100126.38;;;13.83;74.83
30598;BME280;17365;48.878;8.334;2023-05-20T06:23:49;100119.09;;;14.11;73.89
30598;BME280;17365;48.878;8.334;2023-05-20T06:26:15;100120.91;;;14.03;74.40
30598;BME280;17365;48.878;8.334;2023-05-20T06:28:40;100121.50;;;14.25;72.89
30598;BME280;17365;48.878;8.334;2023-05-20T06:31:05;100117.22;;;14.85;72.31
30598;BME280;17365;48.878;8.334;2023-05-20T06:33:31;100116.72;;;15.14;70.73
30598;BME280;17365;48.878;8.334;2023-05-20T06:35:57;100112.09;;;14.78;71.83
30598;BME280;17365;48.878;8.334;2023-05-20T06:38:22;100113.06;;;14.72;72.72
30598;BME280;17365;48.878;8.334;2023-05-20T06:40:47;100114.44;;;14.96;71.91
30598;BME280;17365;48.878;8.334;2023-05-20T06:43:15;100114.94;;;14.63;73.12
30598;BME280;17365;48.878;8.334;2023-05-20T06:45:40;100097.03;;;15.44;70.32
30598;BME280;17365;48.878;8.334;2023-05-20T06:48:06;100096.56;;;15.23;70.30
30598;BME280;17365;48.878;8.334;2023-05-20T06:50:31;100099.63;;;14.97;71.56
30598;BME280;17365;48.878;8.334;2023-05-20T06:52:56;100106.47;;;14.45;73.11
30598;BME280;17365;48.878;8.334;2023-05-20T06:55:22;100105.34;;;15.17;71.84
30598;BME280;17365;48.878;8.334;2023-05-20T06:57:47;100098.84;;;14.90;72.52
30598;BME280;17365;48.878;8.334;2023-05-20T07:00:12;100107.81;;;14.74;73.74
30598;BME280;17365;48.878;8.334;2023-05-20T07:02:38;100097.19;;;14.86;73.30
30598;BME280;17365;48.878;8.334;2023-05-20T07:05:03;100102.59;;;15.26;71.96
30598;BME280;17365;48.878;8.334;2023-05-20T07:07:28;100095.53;;;15.31;71.99
30598;BME280;17365;48.878;8.334;2023-05-20T07:09:53;100103.06;;;15.48;71.66
30598;BME280;17365;48.878;8.334;2023-05-20T07:12:19;100094.41;;;15.46;71.14
30598;BME280;17365;48.878;8.334;2023-05-20T07:14:44;100091.50;;;15.13;72.25
30598;BME280;17365;48.878;8.334;2023-05-20T07:17:09;100089.34;;;15.35;71.73
30598;BME280;17365;48.878;8.334;2023-05-20T07:19:35;100090.06;;;15.45;72.08
30598;BME280;17365;48.878;8.334;2023-05-20T07:22:00;100088.63;;;15.27;72.76
30598;BME280;17365;48.878;8.334;2023-05-20T07:24:25;100088.84;;;15.66;71.93
30598;BME280;17365;48.878;8.334;2023-05-20T07:26:50;100080.00;;;16.13;70.22
30598;BME280;17365;48.878;8.334;2023-05-20T07:29:16;100075.53;;;16.20;69.04
30598;BME280;17365;48.878;8.334;2023-05-20T07:31:41;100081.69;;;15.74;72.15
30598;BME280;17365;48.878;8.334;2023-05-20T07:34:06;100071.38;;;16.48;69.53
30598;BME280;17365;48.878;8.334;2023-05-20T07:36:32;100075.31;;;16.27;70.25
30598;BME280;17365;48.878;8.334;2023-05-20T07:38:57;100075.22;;;16.34;69.16
30598;BME280;17365;48.878;8.334;2023-05-20T07:41:22;100075.91;;;16.40;69.76
30598;BME280;17365;48.878;8.334;2023-05-20T07:43:47;100067.34;;;16.72;68.37
30598;BME280;17365;48.878;8.334;2023-05-20T07:46:13;100063.22;;;16.99;67.79
30598;BME280;17365;48.878;8.334;2023-05-20T07:48:40;100051.31;;;17.18;67.45
30598;BME280;17365;48.878;8.334;2023-05-20T07:51:05;100055.34;;;16.99;68.46
30598;BME280;17365;48.878;8.334;2023-05-20T07:53:30;100044.13;;;16.57;69.64
30598;BME280;17365;48.878;8.334;2023-05-20T07:55:55;100037.53;;;17.44;67.24
30598;BME280;17365;48.878;8.334;2023-05-20T07:58:21;100041.91;;;17.11;69.19
30598;BME280;17365;48.878;8.334;2023-05-20T08:00:46;100033.41;;;17.67;66.94
30598;BME280;17365;48.878;8.334;2023-05-20T08:03:11;100038.84;;;17.92;65.99
30598;BME280;17365;48.878;8.334;2023-05-20T08:05:38;100035.13;;;17.37;66.93
30598;BME280;17365;48.878;8.334;2023-05-20T08:08:03;100033.41;;;17.67;67.12
30598;BME280;17365;48.878;8.334;2023-05-20T08:10:28;100034.69;;;17.52;66.94
30598;BME280;17365;48.878;8.334;2023-05-20T08:12:53;100028.25;;;17.31;68.76
30598;BME280;17365;48.878;8.334;2023-05-20T08:15:19;100030.63;;;17.73;67.42
30598;BME280;17365;48.878;8.334;2023-05-20T08:17:44;100028.22;;;17.64;67.42
30598;BME280;17365;48.878;8.334;2023-05-20T08:20:10;100011.16;;;18.10;67.31
30598;BME280;17365;48.878;8.334;2023-05-20T08:22:36;100007.19;;;17.96;66.46
30598;BME280;17365;48.878;8.334;2023-05-20T08:25:02;100003.34;;;18.62;64.66
30598;BME280;17365;48.878;8.334;2023-05-20T08:27:27;100000.56;;;18.41;65.38
30598;BME280;17365;48.878;8.334;2023-05-20T08:29:52;99996.06;;;18.72;64.32
30598;BME280;17365;48.878;8.334;2023-05-20T08:32:17;100001.94;;;18.80;64.39
30598;BME280;17365;48.878;8.334;2023-05-20T08:34:42;100007.44;;;18.73;62.63
30598;BME280;17365;48.878;8.334;2023-05-20T08:37:07;99994.06;;;18.79;62.19
30598;BME280;17365;48.878;8.334;2023-05-20T08:39:33;99999.75;;;18.93;62.00
30598;BME280;17365;48.878;8.334;2023-05-20T08:42:00;99994.44;;;18.68;62.93
30598;BME280;17365;48.878;8.334;2023-05-20T08:44:27;99989.66;;;18.81;61.45
30598;BME280;17365;48.878;8.334;2023-05-20T08:46:53;99987.69;;;18.59;62.47
30598;BME280;17365;48.878;8.334;2023-05-20T08:49:19;99986.84;;;18.85;62.19
30598;BME280;17365;48.878;8.334;2023-05-20T08:51:44;99987.13;;;18.50;62.72
30598;BME280;17365;48.878;8.334;2023-05-20T08:54:11;99983.44;;;18.55;62.91
30598;BME280;17365;48.878;8.334;2023-05-20T08:56:37;99989.53;;;18.84;61.90
30598;BME280;17365;48.878;8.334;2023-05-20T08:59:03;99990.81;;;18.44;62.35
30598;BME280;17365;48.878;8.334;2023-05-20T09:01:28;99995.28;;;18.69;61.64
30598;BME280;17365;48.878;8.334;2023-05-20T09:03:53;99983.97;;;18.93;61.14
30598;BME280;17365;48.878;8.334;2023-05-20T09:06:18;99986.22;;;19.04;60.52
30598;BME280;17365;48.878;8.334;2023-05-20T09:08:44;99994.03;;;19.30;60.24
30598;BME280;17365;48.878;8.334;2023-05-20T09:11:10;99992.72;;;19.18;60.97
30598;BME280;17365;48.878;8.334;2023-05-20T09:13:36;99997.59;;;19.04;60.66
30598;BME280;17365;48.878;8.334;2023-05-20T09:16:01;100003.09;;;18.72;62.23
30598;BME280;17365;48.878;8.334;2023-05-20T09:18:26;99997.13;;;19.18;60.95
30598;BME280;17365;48.878;8.334;2023-05-20T09:20:53;100011.59;;;19.30;60.03
30598;BME280;17365;48.878;8.334;2023-05-20T09:23:18;100004.09;;;19.19;61.00
30598;BME280;17365;48.878;8.334;2023-05-20T09:25:47;100003.53;;;19.34;60.54
30598;BME280;17365;48.878;8.334;2023-05-20T09:28:13;100004.16;;;19.17;60.16
30598;BME280;17365;48.878;8.334;2023-05-20T09:30:38;100002.59;;;19.37;59.53
30598;BME280;17365;48.878;8.334;2023-05-20T09:33:04;100002.34;;;20.13;57.34
30598;BME280;17365;48.878;8.334;2023-05-20T09:35:29;100001.56;;;20.11;57.98
30598;BME280;17365;48.878;8.334;2023-05-20T09:37:56;99993.66;;;20.11;56.45
30598;BME280;17365;48.878;8.334;2023-05-20T09:40:25;99997.28;;;20.30;55.95
30598;BME280;17365;48.878;8.334;2023-05-20T09:45:17;99973.88;;;20.67;55.95
30598;BME280;17365;48.878;8.334;2023-05-20T09:47:42;99974.72;;;20.01;57.42
30598;BME280;17365;48.878;8.334;2023-05-20T09:50:08;99978.53;;;19.94;56.90
30598;BME280;17365;48.878;8.334;2023-05-20T09:52:36;99973.28;;;19.71;56.86
30598;BME280;17365;48.878;8.334;2023-05-20T09:55:03;99975.09;;;20.36;56.91
30598;BME280;17365;48.878;8.334;2023-05-20T09:57:30;99969.16;;;20.09;56.62
30598;BME280;17365;48.878;8.334;2023-05-20T09:59:55;99967.63;;;20.03;56.68
30598;BME280;17365;48.878;8.334;2023-05-20T10:02:21;99967.72;;;19.78;56.04
30598;BME280;17365;48.878;8.334;2023-05-20T10:04:47;99968.69;;;20.21;56.28
30598;BME280;17365;48.878;8.334;2023-05-20T10:09:53;99952.25;;;20.79;54.43
30598;BME280;17365;48.878;8.334;2023-05-20T10:18:15;99951.47;;;21.57;52.32
30598;BME280;17365;48.878;8.334;2023-05-20T10:20:28;99952.84;;;21.06;52.58
30598;BME280;17365;48.878;8.334;2023-05-20T10:22:54;99953.47;;;20.50;53.60
30598;BME280;17365;48.878;8.334;2023-05-20T10:25:25;99959.66;;;20.49;53.96
30598;BME280;17365;48.878;8.334;2023-05-20T10:27:51;99945.88;;;20.84;53.29
30598;BME280;17365;48.878;8.334;2023-05-20T10:30:17;99933.13;;;21.35;53.04
30598;BME280;17365;48.878;8.334;2023-05-20T10:33:16;99943.34;;;20.81;52.50
30598;BME280;17365;48.878;8.334;2023-05-20T10:35:34;99922.78;;;21.10;52.78
30598;BME280;17365;48.878;8.334;2023-05-20T10:38:07;99930.63;;;20.91;53.04
30598;BME280;17365;48.878;8.334;2023-05-20T10:40:33;99924.97;;;20.59;52.68
30598;BME280;17365;48.878;8.334;2023-05-20T10:43:07;99929.66;;;20.31;54.31
30598;BME280;17365;48.878;8.334;2023-05-20T10:45:33;99928.84;;;20.91;52.21
30598;BME280;17365;48.878;8.334;2023-05-20T10:48:02;99931.56;;;20.70;52.66
30598;BME280;17365;48.878;8.334;2023-05-20T10:50:32;99920.06;;;21.50;50.69
30598;BME280;17365;48.878;8.334;2023-05-20T10:53:02;99912.03;;;21.54;50.29
30598;BME280;17365;48.878;8.334;2023-05-20T10:55:33;99910.53;;;22.22;49.50
30598;BME280;17365;48.878;8.334;2023-05-20T10:57:59;99912.06;;;21.90;49.25
30598;BME280;17365;48.878;8.334;2023-05-20T11:00:24;99911.84;;;21.94;50.21
30598;BME280;17365;48.878;8.334;2023-05-20T11:02:50;99917.34;;;21.33;51.31
30598;BME280;17365;48.878;8.334;2023-05-20T11:05:15;99915.09;;;21.24;51.51
30598;BME280;17365;48.878;8.334;2023-05-20T11:07:40;99907.41;;;21.19;51.25
30598;BME280;17365;48.878;8.334;2023-05-20T11:10:07;99905.28;;;21.28;51.55
30598;BME280;17365;48.878;8.334;2023-05-20T11:12:32;99905.59;;;21.78;50.10
30598;BME280;17365;48.878;8.334;2023-05-20T11:14:58;99910.03;;;21.59;49.80
30598;BME280;17365;48.878;8.334;2023-05-20T11:17:23;99901.78;;;21.84;49.81
30598;BME280;17365;48.878;8.334;2023-05-20T11:19:49;99902.75;;;21.25;51.34
30598;BME280;17365;48.878;8.334;2023-05-20T11:22:14;99897.34;;;21.09;51.44
30598;BME280;17365;48.878;8.334;2023-05-20T11:24:39;99889.31;;;21.49;50.46
30598;BME280;17365;48.878;8.334;2023-05-20T11:27:05;99901.13;;;21.42;50.61
30598;BME280;17365;48.878;8.334;2023-05-20T11:29:30;99895.34;;;21.14;51.65
30598;BME280;17365;48.878;8.334;2023-05-20T11:31:56;99901.59;;;21.32;51.07
30598;BME280;17365;48.878;8.334;2023-05-20T11:34:22;99891.03;;;21.50;50.99
30598;BME280;17365;48.878;8.334;2023-05-20T11:36:47;99887.63;;;21.48;50.11
30598;BME280;17365;48.878;8.334;2023-05-20T11:39:14;99888.88;;;21.21;50.97
30598;BME280;17365;48.878;8.334;2023-05-20T11:41:42;99881.69;;;21.62;50.08
30598;BME280;17365;48.878;8.334;2023-05-20T11:44:10;99886.09;;;21.62;50.06
30598;BME280;17365;48.878;8.334;2023-05-20T11:46:42;99881.81;;;21.40;50.94
30598;BME280;17365;48.878;8.334;2023-05-20T11:49:07;99875.44;;;21.46;50.03
30598;BME280;17365;48.878;8.334;2023-05-20T11:51:33;99871.63;;;21.51;49.91
30598;BME280;17365;48.878;8.334;2023-05-20T11:56:23;99876.03;;;21.89;49.02
30598;BME280;17365;48.878;8.334;2023-05-20T11:58:49;99875.00;;;21.91;49.15
30598;BME280;17365;48.878;8.334;2023-05-20T12:01:14;99879.69;;;22.03;49.05
30598;BME280;17365;48.878;8.334;2023-05-20T12:03:39;99871.84;;;22.55;47.64
30598;BME280;17365;48.878;8.334;2023-05-20T12:06:04;99864.91;;;22.35;47.75
30598;BME280;17365;48.878;8.334;2023-05-20T12:08:30;99860.09;;;22.09;49.25
30598;BME280;17365;48.878;8.334;2023-05-20T12:10:55;99852.94;;;22.28;48.55
30598;BME280;17365;48.878;8.334;2023-05-20T12:13:21;99858.69;;;22.19;48.75
30598;BME280;17365;48.878;8.334;2023-05-20T12:15:47;99863.19;;;22.52;47.59
30598;BME280;17365;48.878;8.334;2023-05-20T12:18:13;99850.81;;;22.70;46.95
30598;BME280;17365;48.878;8.334;2023-05-20T12:20:38;99855.81;;;22.58;48.14
30598;BME280;17365;48.878;8.334;2023-05-20T12:23:03;99852.16;;;22.61;47.76
30598;BME280;17365;48.878;8.334;2023-05-20T12:25:28;99844.25;;;22.26;47.79
30598;BME280;17365;48.878;8.334;2023-05-20T12:27:54;99844.56;;;22.37;48.22
30598;BME280;17365;48.878;8.334;2023-05-20T12:30:20;99833.13;;;22.37;48.67
30598;BME280;17365;48.878;8.334;2023-05-20T12:32:49;99836.69;;;22.36;48.98
30598;BME280;17365;48.878;8.334;2023-05-20T12:35:15;99834.84;;;22.55;48.26
30598;BME280;17365;48.878;8.334;2023-05-20T12:37:42;99837.50;;;22.21;48.81
30598;BME280;17365;48.878;8.334;2023-05-20T12:40:08;99844.56;;;22.20;48.89
30598;BME280;17365;48.878;8.334;2023-05-20T12:45:20;99846.69;;;22.64;47.86
30598;BME280;17365;48.878;8.334;2023-05-20T12:47:45;99841.19;;;22.69;47.73
30598;BME280;17365;48.878;8.334;2023-05-20T12:50:12;99832.47;;;22.84;47.86
30598;BME280;17365;48.878;8.334;2023-05-20T12:52:37;99833.50;;;22.97;47.56
30598;BME280;17365;48.878;8.334;2023-05-20T12:55:02;99831.97;;;22.76;48.61
30598;BME280;17365;48.878;8.334;2023-05-20T12:57:29;99832.16;;;22.90;47.86
30598;BME280;17365;48.878;8.334;2023-05-20T12:59:55;99827.22;;;22.82;47.98